createdAt,value
2019-04-12T00:02:20.129Z,14.90
2019-04-12T00:04:47.480Z,16.10
2019-04-12T00:07:14.769Z,16.00
2019-04-12T00:09:42.119Z,15.43
2019-04-12T00:12:09.402Z,14.80
2019-04-12T00:14:36.672Z,15.17
2019-04-12T00:17:04.139Z,15.23
2019-04-12T00:19:31.424Z,15.57
2019-04-12T00:21:58.703Z,17.97
2019-04-12T00:24:34.263Z,15.70
2019-04-12T00:26:55.020Z,15.97
2019-04-12T00:29:22.299Z,16.00
2019-04-12T00:31:51.443Z,15.87
2019-04-12T00:34:23.006Z,15.77
2019-04-12T00:36:47.697Z,16.30
2019-04-12T00:39:15.018Z,16.80
2019-04-12T00:41:42.290Z,17.70
2019-04-12T00:44:09.645Z,15.60
2019-04-12T00:46:38.055Z,18.30
2019-04-12T00:49:07.102Z,18.00
2019-04-12T00:51:35.126Z,17.20
2019-04-12T00:54:02.518Z,17.70
2019-04-12T00:56:29.796Z,18.03
2019-04-12T00:58:57.078Z,15.77
2019-04-12T01:01:43.946Z,17.33
2019-04-12T01:04:21.836Z,18.10
2019-04-12T01:06:49.234Z,17.80
2019-04-12T01:09:16.640Z,17.07
2019-04-12T01:11:43.938Z,18.10
2019-04-12T01:14:11.549Z,16.70
2019-04-12T01:16:38.824Z,17.43
2019-04-12T01:19:06.102Z,19.17
2019-04-12T01:21:37.149Z,18.83
2019-04-12T01:24:02.414Z,16.23
2019-04-12T01:26:29.707Z,17.97
2019-04-12T01:28:57.103Z,17.50
2019-04-12T01:31:24.380Z,18.57
2019-04-12T01:33:51.657Z,17.07
2019-04-12T01:36:19.366Z,21.47
2019-04-12T01:38:46.645Z,18.50
2019-04-12T01:41:13.928Z,17.70
2019-04-12T01:43:41.320Z,19.13
2019-04-12T01:46:08.750Z,17.07
2019-04-12T01:48:36.038Z,19.50
2019-04-12T01:51:03.333Z,18.40
2019-04-12T01:53:30.629Z,16.93
2019-04-12T01:55:57.916Z,17.83
2019-04-12T01:58:25.225Z,17.80
2019-04-12T02:00:52.580Z,17.23
2019-04-12T02:03:19.866Z,18.20
2019-04-12T02:05:47.191Z,18.17
2019-04-12T02:08:14.757Z,17.77
2019-04-12T02:10:44.065Z,18.17
2019-04-12T02:13:11.845Z,19.40
2019-04-12T02:15:39.551Z,19.00
2019-04-12T02:18:06.830Z,20.20
2019-04-12T02:20:34.545Z,16.83
2019-04-12T02:23:01.824Z,19.23
2019-04-12T02:25:29.173Z,19.13
2019-04-12T02:27:56.493Z,18.47
2019-04-12T02:30:24.977Z,20.47
2019-04-12T02:32:53.913Z,19.47
2019-04-12T02:35:34.466Z,20.30
2019-04-12T02:38:01.890Z,19.43
2019-04-12T02:40:29.299Z,20.27
2019-04-12T02:42:57.787Z,18.83
2019-04-12T02:45:26.365Z,21.80
2019-04-12T02:47:54.668Z,20.20
2019-04-12T02:50:26.895Z,21.07
2019-04-12T02:53:04.964Z,20.73
2019-04-12T02:55:37.942Z,22.30
2019-04-12T02:58:07.563Z,23.37
2019-04-12T03:00:36.647Z,23.87
2019-04-12T03:03:04.093Z,23.63
2019-04-12T03:05:31.444Z,24.70
2019-04-12T03:07:58.896Z,25.57
2019-04-12T03:10:26.913Z,24.10
2019-04-12T03:12:55.757Z,28.00
2019-04-12T03:15:23.058Z,27.43
2019-04-12T03:17:50.478Z,26.47
2019-04-12T03:20:17.835Z,28.10
2019-04-12T03:22:45.230Z,25.13
2019-04-12T03:25:12.593Z,25.87
2019-04-12T03:27:40.122Z,26.17
2019-04-12T03:30:07.691Z,26.50
2019-04-12T03:32:35.307Z,25.30
2019-04-12T03:35:03.039Z,24.63
2019-04-12T03:37:30.970Z,26.80
2019-04-12T03:39:58.390Z,26.17
2019-04-12T03:42:25.750Z,26.30
2019-04-12T03:44:53.153Z,26.23
2019-04-12T03:47:20.517Z,26.97
2019-04-12T03:49:47.963Z,25.60
2019-04-12T03:52:15.522Z,27.70
2019-04-12T03:54:42.800Z,25.77
2019-04-12T03:57:10.748Z,26.87
2019-04-12T03:59:38.184Z,27.80
2019-04-12T04:02:07.178Z,26.40
2019-04-12T04:04:34.527Z,26.37
2019-04-12T04:07:02.020Z,27.27
2019-04-12T04:09:29.498Z,27.47
2019-04-12T04:11:58.903Z,27.90
2019-04-12T04:14:26.322Z,28.17
2019-04-12T04:17:12.010Z,29.10
2019-04-12T04:19:43.972Z,28.20
2019-04-12T04:22:12.843Z,28.17
2019-04-12T04:24:47.817Z,28.60
2019-04-12T04:27:20.091Z,30.77
2019-04-12T04:29:51.961Z,27.90
2019-04-12T04:32:21.061Z,26.57
2019-04-12T04:34:48.527Z,26.90
2019-04-12T04:37:16.065Z,28.10
2019-04-12T04:39:43.405Z,27.50
2019-04-12T04:42:11.338Z,27.03
2019-04-12T04:44:38.655Z,28.30
2019-04-12T04:47:06.424Z,28.27
2019-04-12T04:49:33.798Z,28.93
2019-04-12T04:52:01.186Z,29.00
2019-04-12T04:54:28.832Z,30.87
2019-04-12T04:56:56.177Z,28.60
2019-04-12T04:59:23.553Z,32.80
2019-04-12T05:01:52.004Z,29.90
2019-04-12T05:04:19.461Z,30.07
2019-04-12T05:06:46.933Z,29.43
2019-04-12T05:09:14.288Z,29.67
2019-04-12T05:11:41.636Z,30.20
2019-04-12T05:14:09.124Z,29.60
2019-04-12T05:16:36.689Z,31.50
2019-04-12T05:19:04.145Z,30.13
2019-04-12T05:21:31.585Z,30.43
2019-04-12T05:23:58.925Z,30.90
2019-04-12T05:26:27.980Z,30.87
2019-04-12T05:28:55.291Z,30.50
2019-04-12T05:31:22.643Z,31.37
2019-04-12T05:33:50.056Z,30.37
2019-04-12T05:36:17.826Z,31.33
2019-04-12T05:38:45.170Z,31.13
2019-04-12T05:41:12.445Z,29.90
2019-04-12T05:43:41.383Z,30.40
2019-04-12T05:46:10.301Z,29.80
2019-04-12T05:48:42.312Z,31.27
2019-04-12T05:51:09.705Z,31.60
2019-04-12T05:53:36.992Z,30.10
2019-04-12T05:56:04.336Z,27.20
2019-04-12T05:58:49.756Z,31.20
2019-04-12T06:01:36.880Z,29.30
2019-04-12T06:04:04.176Z,30.13
2019-04-12T06:06:32.948Z,28.63
2019-04-12T06:09:00.708Z,29.70
2019-04-12T06:11:29.083Z,27.63
2019-04-12T06:13:58.107Z,29.50
2019-04-12T06:16:25.665Z,27.70
2019-04-12T06:18:53.357Z,27.73
2019-04-12T06:21:25.277Z,27.10
2019-04-12T06:23:52.618Z,26.77
2019-04-12T06:26:30.725Z,28.37
2019-04-12T06:28:58.072Z,27.17
2019-04-12T06:31:25.423Z,28.10
2019-04-12T06:33:53.027Z,27.80
2019-04-12T06:36:20.360Z,26.90
2019-04-12T06:38:47.717Z,26.10
2019-04-12T06:41:15.111Z,27.77
2019-04-12T06:43:42.518Z,27.20
2019-04-12T06:46:09.812Z,26.93
2019-04-12T06:48:37.121Z,28.20
2019-04-12T06:51:10.254Z,27.60
2019-04-12T06:53:37.604Z,26.60
2019-04-12T06:56:09.701Z,26.67
2019-04-12T06:58:36.979Z,27.37
2019-04-12T07:01:14.832Z,25.30
2019-04-12T07:03:57.151Z,23.13
2019-04-12T07:06:21.812Z,18.30
2019-04-12T07:08:49.181Z,17.60
2019-04-12T07:11:16.489Z,17.90
2019-04-12T07:13:43.878Z,17.47
2019-04-12T07:16:11.172Z,16.60
2019-04-12T07:18:38.541Z,18.10
2019-04-12T07:21:05.851Z,17.80
2019-04-12T07:23:33.124Z,19.47
2019-04-12T07:26:00.398Z,18.90
2019-04-12T07:28:27.786Z,18.43
2019-04-12T07:30:56.967Z,17.73
2019-04-12T07:33:24.134Z,17.47
2019-04-12T07:35:51.513Z,17.43
2019-04-12T07:38:18.808Z,17.07
2019-04-12T07:40:46.097Z,17.47
2019-04-12T07:43:13.412Z,16.77
2019-04-12T07:45:40.757Z,17.47
2019-04-12T07:48:08.024Z,17.57
2019-04-12T07:50:53.438Z,17.17
2019-04-12T07:53:20.736Z,16.63
2019-04-12T07:56:05.830Z,16.67
2019-04-12T07:58:51.254Z,18.90
2019-04-12T08:01:25.976Z,17.60
2019-04-12T08:04:11.340Z,17.80
2019-04-12T08:06:40.386Z,16.77
2019-04-12T08:09:07.826Z,18.07
2019-04-12T08:11:35.180Z,17.17
2019-04-12T08:14:02.517Z,17.10
2019-04-12T08:16:29.826Z,16.47
2019-04-12T08:18:57.130Z,16.87
2019-04-12T08:21:24.545Z,17.63
2019-04-12T08:23:51.902Z,17.67
2019-04-12T08:26:19.200Z,16.73
2019-04-12T08:28:46.610Z,17.03
2019-04-12T08:31:13.904Z,15.23
2019-04-12T08:33:41.185Z,17.67
2019-04-12T08:36:08.531Z,18.33
2019-04-12T08:38:35.890Z,16.60
2019-04-12T08:41:03.182Z,17.67
2019-04-12T08:43:30.584Z,19.33
2019-04-12T08:45:57.870Z,17.93
2019-04-12T08:48:25.249Z,16.60
2019-04-12T08:50:53.100Z,18.00
2019-04-12T08:53:20.417Z,17.87
2019-04-12T08:55:47.784Z,17.20
2019-04-12T08:58:15.164Z,17.87
2019-04-12T09:00:42.522Z,18.97
2019-04-12T09:03:09.898Z,18.47
2019-04-12T09:05:37.364Z,16.90
2019-04-12T09:08:04.681Z,16.83
2019-04-12T09:10:32.059Z,17.87
2019-04-12T09:12:59.457Z,18.60
2019-04-12T09:15:26.864Z,18.70
2019-04-12T09:17:54.200Z,17.10
2019-04-12T09:20:39.719Z,17.90
2019-04-12T09:23:25.243Z,17.97
2019-04-12T09:25:57.194Z,16.20
2019-04-12T09:28:25.572Z,18.87
2019-04-12T09:30:53.163Z,17.80
2019-04-12T09:33:20.643Z,16.70
2019-04-12T09:35:48.010Z,16.33
2019-04-12T09:38:15.378Z,15.47
2019-04-12T09:40:42.702Z,17.03
2019-04-12T09:43:10.065Z,17.93
2019-04-12T09:45:37.338Z,17.87
2019-04-12T09:48:04.660Z,16.77
2019-04-12T09:50:32.001Z,17.23
2019-04-12T09:52:59.289Z,17.13
2019-04-12T09:55:26.754Z,16.77
2019-04-12T09:57:54.321Z,16.20
2019-04-12T10:00:21.817Z,16.03
2019-04-12T10:02:49.237Z,16.83
2019-04-12T10:05:16.520Z,16.50
2019-04-12T10:07:43.809Z,16.23
2019-04-12T10:10:11.141Z,16.03
2019-04-12T10:12:38.497Z,16.43
2019-04-12T10:15:06.417Z,16.60
2019-04-12T10:17:33.802Z,16.67
2019-04-12T10:20:01.070Z,15.17
2019-04-12T10:22:28.381Z,15.57
2019-04-12T10:24:55.709Z,15.47
2019-04-12T10:27:23.088Z,15.80
2019-04-12T10:29:50.439Z,14.97
2019-04-12T10:32:17.811Z,16.37
2019-04-12T10:34:55.390Z,15.13
2019-04-12T10:37:33.630Z,15.50
2019-04-12T10:40:00.923Z,15.03
2019-04-12T10:42:28.279Z,16.27
2019-04-12T10:45:03.103Z,16.20
2019-04-12T10:47:34.611Z,14.50
2019-04-12T10:50:09.220Z,15.70
2019-04-12T10:52:50.125Z,17.40
2019-04-12T10:55:31.107Z,15.10
2019-04-12T10:57:58.410Z,15.53
2019-04-12T11:00:27.413Z,15.27
2019-04-12T11:02:54.892Z,16.53
2019-04-12T11:05:22.177Z,16.17
2019-04-12T11:07:49.521Z,14.20
2019-04-12T11:10:16.867Z,14.10
2019-04-12T11:12:44.268Z,14.63
2019-04-12T11:15:21.190Z,14.00
2019-04-12T11:17:40.740Z,14.07
2019-04-12T11:20:08.201Z,15.33
2019-04-12T11:22:35.524Z,14.33
2019-04-12T11:25:03.000Z,15.63
2019-04-12T11:27:30.295Z,14.57
2019-04-12T11:29:57.653Z,13.33
2019-04-12T11:32:25.126Z,13.93
2019-04-12T11:34:52.425Z,13.57
2019-04-12T11:37:19.721Z,12.50
2019-04-12T11:39:47.051Z,13.10
2019-04-12T11:42:14.421Z,13.57
2019-04-12T11:44:41.709Z,13.20
2019-04-12T11:47:09.032Z,12.80
2019-04-12T11:49:36.483Z,12.53
2019-04-12T11:52:03.921Z,12.00
2019-04-12T11:54:31.243Z,12.30
2019-04-12T11:56:58.524Z,12.77
2019-04-12T11:59:29.585Z,12.27
2019-04-12T12:02:08.611Z,13.00
2019-04-12T12:04:53.943Z,12.23
2019-04-12T12:07:49.799Z,13.43
2019-04-12T12:10:28.381Z,12.00
2019-04-12T12:13:00.264Z,12.93
2019-04-12T12:15:29.199Z,11.50
2019-04-12T12:18:01.175Z,12.23
2019-04-12T12:20:28.604Z,12.90
2019-04-12T12:22:55.901Z,11.40
2019-04-12T12:25:23.201Z,12.37
2019-04-12T12:27:50.601Z,13.97
2019-04-12T12:30:18.046Z,12.70
2019-04-12T12:32:45.432Z,12.57
2019-04-12T12:35:12.797Z,12.43
2019-04-12T12:37:40.250Z,11.63
2019-04-12T12:40:07.604Z,12.23
2019-04-12T12:42:35.002Z,12.60
2019-04-12T12:45:02.357Z,12.63
2019-04-12T12:47:29.655Z,12.80
2019-04-12T12:49:57.050Z,11.90
2019-04-12T12:52:24.402Z,11.40
2019-04-12T12:54:51.779Z,13.30
2019-04-12T12:57:19.134Z,12.10
2019-04-12T12:59:54.651Z,11.67
2019-04-12T13:02:15.604Z,12.70
2019-04-12T13:04:42.979Z,10.70
2019-04-12T13:07:10.337Z,10.47
2019-04-12T13:09:39.178Z,11.10
2019-04-12T13:12:06.514Z,10.97
2019-04-12T13:14:33.795Z,11.80
2019-04-12T13:17:01.075Z,9.80
2019-04-12T13:19:28.401Z,10.57
2019-04-12T13:21:55.683Z,10.60
2019-04-12T13:24:23.032Z,11.00
2019-04-12T13:26:50.332Z,10.47
2019-04-12T13:29:17.617Z,10.80
2019-04-12T13:31:52.376Z,11.07
2019-04-12T13:34:33.550Z,10.63
2019-04-12T13:37:19.555Z,10.87
2019-04-12T13:39:57.601Z,9.80
2019-04-12T13:42:32.490Z,10.43
2019-04-12T13:45:00.145Z,10.30
2019-04-12T13:47:27.470Z,10.47
2019-04-12T13:49:54.766Z,9.30
2019-04-12T13:52:22.045Z,9.97
2019-04-12T13:54:51.712Z,10.53
2019-04-12T13:57:19.125Z,10.30
2019-04-12T13:59:46.485Z,10.00
2019-04-12T14:02:13.979Z,11.00
2019-04-12T14:04:41.354Z,10.73
2019-04-12T14:07:08.721Z,9.80
2019-04-12T14:09:38.745Z,10.27
2019-04-12T14:12:05.204Z,9.80
2019-04-12T14:14:32.487Z,11.07
2019-04-12T14:17:01.640Z,9.90
2019-04-12T14:19:28.964Z,10.60
2019-04-12T14:21:56.331Z,9.90
2019-04-12T14:24:23.648Z,11.13
2019-04-12T14:26:50.969Z,11.37
2019-04-12T14:29:20.448Z,10.00
2019-04-12T14:31:49.457Z,10.57
2019-04-12T14:34:30.258Z,10.93
2019-04-12T14:37:15.531Z,9.67
2019-04-12T14:39:43.032Z,10.37
2019-04-12T14:42:10.401Z,9.77
2019-04-12T14:44:42.260Z,9.67
2019-04-12T14:47:13.866Z,9.93
2019-04-12T14:49:42.974Z,9.77
2019-04-12T14:52:10.429Z,10.77
2019-04-12T14:54:37.797Z,11.40
2019-04-12T14:57:05.161Z,9.60
2019-04-12T14:59:32.569Z,9.13
2019-04-12T15:01:59.987Z,9.50
2019-04-12T15:04:27.413Z,9.83
2019-04-12T15:06:54.825Z,9.73
2019-04-12T15:09:22.208Z,10.37
2019-04-12T15:11:50.759Z,9.53
2019-04-12T15:14:18.141Z,10.07
2019-04-12T15:16:45.705Z,9.47
2019-04-12T15:19:14.151Z,9.47
2019-04-12T15:21:41.637Z,10.27
2019-04-12T15:24:08.916Z,9.20
2019-04-12T15:26:36.472Z,10.00
2019-04-12T15:29:03.812Z,10.30
2019-04-12T15:31:31.169Z,9.60
2019-04-12T15:33:58.621Z,10.10
2019-04-12T15:36:28.223Z,9.37
2019-04-12T15:38:55.534Z,10.53
2019-04-12T15:41:22.816Z,10.30
2019-04-12T15:43:50.106Z,9.93
2019-04-12T15:46:17.377Z,9.97
2019-04-12T15:48:44.680Z,9.93
2019-04-12T15:51:12.145Z,9.17
2019-04-12T15:53:39.449Z,10.47
2019-04-12T15:56:06.819Z,11.03
2019-04-12T15:58:34.310Z,10.50
2019-04-12T16:01:11.686Z,9.90
2019-04-12T16:03:33.680Z,10.17
2019-04-12T16:06:01.823Z,9.93
2019-04-12T16:08:30.746Z,10.60
2019-04-12T16:11:00.170Z,10.13
2019-04-12T16:13:29.491Z,10.13
2019-04-12T16:16:16.783Z,10.07
2019-04-12T16:18:44.279Z,10.53
2019-04-12T16:21:14.010Z,10.00
2019-04-12T16:23:41.909Z,11.30
2019-04-12T16:26:09.314Z,11.73
2019-04-12T16:28:41.831Z,10.83
2019-04-12T16:31:27.528Z,10.27
2019-04-12T16:34:05.498Z,10.67
2019-04-12T16:36:43.705Z,10.60
2019-04-12T16:39:15.347Z,10.57
2019-04-12T16:41:42.732Z,11.93
2019-04-12T16:44:10.224Z,10.43
2019-04-12T16:46:37.592Z,10.90
2019-04-12T16:49:04.916Z,10.80
2019-04-12T16:51:32.300Z,9.50
2019-04-12T16:54:00.552Z,11.03
2019-04-12T16:56:27.913Z,11.13
2019-04-12T16:58:55.320Z,12.57
2019-04-12T17:01:35.768Z,13.33
2019-04-12T17:03:51.648Z,12.30
2019-04-12T17:06:18.979Z,12.03
2019-04-12T17:08:46.272Z,12.23
2019-04-12T17:11:13.628Z,13.20
2019-04-12T17:13:40.971Z,11.93
2019-04-12T17:16:08.270Z,12.77
2019-04-12T17:18:35.565Z,10.67
2019-04-12T17:21:02.923Z,11.60
2019-04-12T17:23:30.283Z,11.83
2019-04-12T17:25:57.563Z,10.87
2019-04-12T17:28:24.906Z,12.90
2019-04-12T17:30:53.904Z,12.87
2019-04-12T17:33:21.307Z,11.70
2019-04-12T17:35:48.727Z,11.50
2019-04-12T17:38:16.033Z,13.13
2019-04-12T17:40:43.391Z,11.13
2019-04-12T17:43:12.204Z,13.30
2019-04-12T17:45:39.582Z,11.80
2019-04-12T17:48:08.616Z,12.70
2019-04-12T17:50:37.987Z,10.30
2019-04-12T17:53:23.462Z,13.37
2019-04-12T17:55:55.021Z,12.80
2019-04-12T17:58:22.709Z,13.57
2019-04-12T18:01:01.171Z,13.07
2019-04-12T18:03:28.542Z,11.80
2019-04-12T18:05:55.856Z,12.60
2019-04-12T18:08:25.630Z,12.60
2019-04-12T18:10:54.637Z,12.40
2019-04-12T18:13:22.022Z,12.87
2019-04-12T18:15:49.552Z,12.70
2019-04-12T18:18:16.929Z,12.00
2019-04-12T18:20:44.789Z,12.33
2019-04-12T18:23:13.604Z,14.17
2019-04-12T18:25:41.165Z,12.00
2019-04-12T18:28:08.538Z,12.90
2019-04-12T18:30:35.859Z,12.60
2019-04-12T18:33:03.282Z,12.70
2019-04-12T18:35:30.992Z,12.37
2019-04-12T18:37:58.416Z,12.53
2019-04-12T18:40:25.853Z,12.70
2019-04-12T18:42:53.169Z,13.00
2019-04-12T18:45:20.589Z,12.60
2019-04-12T18:47:47.973Z,12.67
2019-04-12T18:50:15.360Z,12.67
2019-04-12T18:52:42.845Z,12.37
2019-04-12T18:55:10.236Z,13.43
2019-04-12T18:57:37.617Z,13.90
2019-04-12T19:00:06.165Z,12.53
2019-04-12T19:02:33.557Z,13.80
2019-04-12T19:05:00.911Z,14.20
2019-04-12T19:07:28.388Z,13.53
2019-04-12T19:09:57.318Z,13.50
2019-04-12T19:12:24.696Z,13.00
2019-04-12T19:14:53.048Z,12.20
2019-04-12T19:17:31.049Z,12.13
2019-04-12T19:19:58.449Z,13.23
2019-04-12T19:22:25.836Z,13.30
2019-04-12T19:24:53.201Z,12.73
2019-04-12T19:27:20.577Z,14.00
2019-04-12T19:29:48.137Z,12.30
2019-04-12T19:32:17.075Z,13.87
2019-04-12T19:35:02.497Z,13.50
2019-04-12T19:37:47.974Z,13.70
2019-04-12T19:40:16.989Z,13.83
2019-04-12T19:42:44.265Z,13.60
2019-04-12T19:45:12.205Z,13.60
2019-04-12T19:47:39.496Z,12.47
2019-04-12T19:50:06.853Z,13.60
2019-04-12T19:52:36.021Z,13.10
2019-04-12T19:55:03.492Z,14.87
2019-04-12T19:57:30.840Z,13.70
2019-04-12T19:59:58.125Z,13.57
2019-04-12T20:02:25.891Z,12.80
2019-04-12T20:04:53.236Z,13.13
2019-04-12T20:07:20.549Z,12.87
2019-04-12T20:09:48.997Z,14.17
2019-04-12T20:12:16.291Z,14.20
2019-04-12T20:14:43.577Z,14.10
2019-04-12T20:17:10.938Z,12.73
2019-04-12T20:19:38.345Z,13.50
2019-04-12T20:22:05.687Z,12.40
2019-04-12T20:24:33.003Z,13.27
2019-04-12T20:27:00.301Z,13.37
2019-04-12T20:29:27.786Z,12.47
2019-04-12T20:31:55.217Z,13.60
2019-04-12T20:34:22.528Z,14.40
2019-04-12T20:36:49.918Z,13.20
2019-04-12T20:39:17.231Z,13.97
2019-04-12T20:41:44.591Z,12.30
2019-04-12T20:44:11.949Z,13.70
2019-04-12T20:46:39.356Z,12.23
2019-04-12T20:49:06.733Z,13.30
2019-04-12T20:51:34.017Z,13.00
2019-04-12T20:54:01.336Z,13.20
2019-04-12T20:56:28.705Z,13.80
2019-04-12T20:58:56.086Z,12.60
2019-04-12T21:01:23.468Z,14.50
2019-04-12T21:03:50.756Z,12.97
2019-04-12T21:06:18.052Z,13.60
2019-04-12T21:08:45.520Z,12.33
2019-04-12T21:11:12.821Z,13.50
2019-04-12T21:13:40.134Z,13.03
2019-04-12T21:16:07.521Z,13.40
2019-04-12T21:18:34.873Z,14.23
2019-04-12T21:21:02.147Z,14.77
2019-04-12T21:23:29.483Z,13.23
2019-04-12T21:25:56.775Z,13.10
2019-04-12T21:28:24.051Z,13.07
2019-04-12T21:30:51.412Z,14.10
2019-04-12T21:33:28.160Z,13.57
2019-04-12T21:35:47.697Z,13.87
2019-04-12T21:38:14.999Z,13.97
2019-04-12T21:40:42.381Z,14.67
2019-04-12T21:43:09.684Z,13.53
2019-04-12T21:45:37.104Z,13.63
2019-04-12T21:48:04.382Z,13.60
2019-04-12T21:50:31.733Z,13.07
2019-04-12T21:52:59.040Z,14.27
2019-04-12T21:55:29.112Z,13.07
2019-04-12T21:57:56.425Z,13.10
2019-04-12T22:00:33.228Z,15.17
2019-04-12T22:03:00.784Z,13.60
2019-04-12T22:05:28.573Z,11.90
2019-04-12T22:07:56.098Z,12.40
2019-04-12T22:10:23.382Z,13.70
2019-04-12T22:12:50.659Z,13.80
2019-04-12T22:15:17.984Z,13.00
2019-04-12T22:17:45.256Z,13.90
2019-04-12T22:20:12.538Z,14.00
2019-04-12T22:22:39.840Z,11.90
2019-04-12T22:25:07.129Z,12.30
2019-04-12T22:27:34.409Z,13.03
2019-04-12T22:30:01.823Z,13.10
2019-04-12T22:32:33.016Z,13.07
2019-04-12T22:35:00.296Z,13.77
2019-04-12T22:37:27.673Z,13.40
2019-04-12T22:39:54.944Z,12.67
2019-04-12T22:42:22.274Z,13.57
2019-04-12T22:44:49.620Z,13.23
2019-04-12T22:47:16.966Z,14.30
2019-04-12T22:49:44.262Z,14.77
2019-04-12T22:52:11.613Z,14.63
2019-04-12T22:54:38.898Z,14.30
2019-04-12T22:57:06.242Z,13.73
2019-04-12T22:59:33.620Z,13.17
2019-04-12T23:02:00.905Z,13.83
2019-04-12T23:04:28.235Z,13.37
2019-04-12T23:06:55.591Z,13.50
2019-04-12T23:09:22.864Z,14.50
2019-04-12T23:11:50.150Z,12.93
2019-04-12T23:14:17.520Z,13.40
2019-04-12T23:16:44.813Z,13.53
2019-04-12T23:19:12.111Z,13.77
2019-04-12T23:21:39.505Z,14.23
2019-04-12T23:24:06.790Z,14.50
2019-04-12T23:26:34.156Z,14.17
2019-04-12T23:29:01.491Z,13.83
2019-04-12T23:31:31.456Z,12.80
2019-04-12T23:34:03.193Z,12.80
2019-04-12T23:36:32.445Z,14.30
2019-04-12T23:38:59.716Z,13.53
2019-04-12T23:41:26.988Z,13.90
2019-04-12T23:43:54.316Z,13.77
2019-04-12T23:46:21.617Z,14.13
2019-04-12T23:48:48.965Z,13.60
2019-04-12T23:51:16.370Z,14.50
2019-04-12T23:53:43.713Z,14.50
2019-04-12T23:56:11.000Z,14.80
2019-04-12T23:58:38.382Z,14.20
